createdAt,value
2023-03-31T00:00:53.520Z,98663.53
2023-03-31T00:03:24.885Z,98662.69
2023-03-31T00:05:59.507Z,98655.94
2023-03-31T00:08:30.341Z,98647.53
2023-03-31T00:11:01.926Z,98646.72
2023-03-31T00:13:30.322Z,98646.81
2023-03-31T00:16:08.868Z,98638.44
2023-03-31T00:18:37.452Z,98639.34
2023-03-31T00:21:29.472Z,98623.38
2023-03-31T00:24:03.850Z,98619.31
2023-03-31T00:26:31.524Z,98624.50
2023-03-31T00:28:59.767Z,98612.75
2023-03-31T00:31:27.917Z,98618.66
2023-03-31T00:33:55.558Z,98608.53
2023-03-31T00:36:29.972Z,98606.81
2023-03-31T00:39:00.373Z,98596.66
2023-03-31T00:41:29.558Z,98588.97
2023-03-31T00:44:13.144Z,98585.56
2023-03-31T00:47:16.418Z,98586.44
2023-03-31T00:49:57.047Z,98576.25
2023-03-31T00:52:37.532Z,98576.25
2023-03-31T00:55:22.347Z,98570.25
2023-03-31T00:57:49.195Z,98565.06
2023-03-31T01:00:16.548Z,98564.97
2023-03-31T01:02:52.374Z,98549.66
2023-03-31T01:05:36.874Z,98542.91
2023-03-31T01:08:05.929Z,98530.25
2023-03-31T01:10:41.617Z,98539.47
2023-03-31T01:13:12.272Z,98531.84
2023-03-31T01:15:39.708Z,98533.50
2023-03-31T01:18:07.347Z,98527.53
2023-03-31T01:21:06.516Z,98519.16
2023-03-31T01:23:48.245Z,98525.00
2023-03-31T01:26:39.910Z,98518.25
2023-03-31T01:29:27.948Z,98515.69
2023-03-31T01:32:09.801Z,98515.69
2023-03-31T01:35:03.972Z,98525.88
2023-03-31T01:38:04.340Z,98508.97
2023-03-31T01:41:07.688Z,98500.56
2023-03-31T01:44:23.310Z,98498.06
2023-03-31T01:47:00.904Z,98493.03
2023-03-31T01:50:00.299Z,98488.75
2023-03-31T01:52:53.094Z,98473.47
2023-03-31T01:55:27.585Z,98467.56
2023-03-31T01:58:11.532Z,98459.06
2023-03-31T02:01:05.794Z,98458.16
2023-03-31T02:03:44.473Z,98446.25
2023-03-31T02:06:19.169Z,98430.94
2023-03-31T02:09:02.162Z,98424.97
2023-03-31T02:11:33.178Z,98413.94
2023-03-31T02:14:02.880Z,98402.91
2023-03-31T02:16:34.538Z,98396.84
2023-03-31T02:19:06.180Z,98389.97
2023-03-31T02:21:37.940Z,98377.31
2023-03-31T02:24:14.477Z,98381.47
2023-03-31T02:27:07.263Z,98350.16
2023-03-31T02:29:34.845Z,98332.47
2023-03-31T02:32:15.462Z,98330.81
2023-03-31T02:34:42.788Z,98317.34
2023-03-31T02:37:09.732Z,98306.38
2023-03-31T02:39:43.150Z,98298.81
2023-03-31T02:42:10.814Z,98294.59
2023-03-31T02:44:39.790Z,98286.22
2023-03-31T02:47:11.459Z,98282.78
2023-03-31T02:49:47.627Z,98280.28
2023-03-31T02:52:56.233Z,98258.34
2023-03-31T02:55:49.849Z,98251.66
2023-03-31T02:58:35.096Z,98232.25
2023-03-31T03:01:53.172Z,98220.47
2023-03-31T03:05:06.878Z,98248.66
2023-03-31T03:07:58.110Z,98226.72
2023-03-31T03:10:54.909Z,98237.00
2023-03-31T03:13:51.108Z,98224.44
2023-03-31T03:16:42.881Z,98234.66
2023-03-31T03:19:10.613Z,98229.69
2023-03-31T03:21:37.343Z,98221.19
2023-03-31T03:24:04.171Z,98202.59
2023-03-31T03:26:35.183Z,98197.53
2023-03-31T03:29:01.913Z,98198.34
2023-03-31T03:31:28.766Z,98193.31
2023-03-31T03:33:55.806Z,98190.78
2023-03-31T03:36:23.685Z,98194.19
2023-03-31T03:38:50.977Z,98193.25
2023-03-31T03:41:17.868Z,98180.56
2023-03-31T03:43:44.572Z,98166.06
2023-03-31T03:46:11.424Z,98161.84
2023-03-31T03:48:38.193Z,98151.69
2023-03-31T03:51:05.082Z,98143.13
2023-03-31T03:53:31.881Z,98131.25
2023-03-31T03:55:59.285Z,98125.22
2023-03-31T03:58:26.219Z,98115.94
2023-03-31T04:00:52.999Z,98102.41
2023-03-31T04:03:19.842Z,98099.09
2023-03-31T04:05:49.849Z,98097.47
2023-03-31T04:08:18.673Z,98083.16
2023-03-31T04:10:49.096Z,98067.91
2023-03-31T04:13:20.069Z,98062.63
2023-03-31T04:15:47.206Z,98061.16
2023-03-31T04:18:23.504Z,98052.22
2023-03-31T04:21:04.167Z,98054.97
2023-03-31T04:23:46.409Z,98039.13
2023-03-31T04:26:15.939Z,98030.69
2023-03-31T04:28:46.553Z,98023.19
2023-03-31T04:31:27.044Z,98003.78
2023-03-31T04:33:54.643Z,98008.91
2023-03-31T04:36:22.310Z,97991.16
2023-03-31T04:38:54.603Z,97981.81
2023-03-31T04:41:23.241Z,97984.34
2023-03-31T04:43:50.671Z,97982.63
2023-03-31T04:46:17.742Z,97979.22
2023-03-31T04:48:44.644Z,97973.25
2023-03-31T04:51:11.650Z,97949.53
2023-03-31T04:53:38.344Z,97946.06
2023-03-31T04:56:06.249Z,97940.88
2023-03-31T04:58:33.801Z,97946.72
2023-03-31T05:01:00.579Z,97934.75
2023-03-31T05:03:27.477Z,97938.88
2023-03-31T05:05:54.360Z,97938.81
2023-03-31T05:08:21.232Z,97934.47
2023-03-31T05:10:48.133Z,97928.50
2023-03-31T05:13:14.886Z,97934.22
2023-03-31T05:15:41.729Z,97929.09
2023-03-31T05:18:08.542Z,97923.94
2023-03-31T05:20:35.494Z,97911.22
2023-03-31T05:23:02.319Z,97904.50
2023-03-31T05:25:32.831Z,97902.81
2023-03-31T05:28:01.409Z,97901.28
2023-03-31T05:30:29.682Z,97908.16
2023-03-31T05:32:57.322Z,97903.19
2023-03-31T05:35:24.469Z,97896.50
2023-03-31T05:37:51.463Z,97902.53
2023-03-31T05:40:18.296Z,97896.69
2023-03-31T05:42:45.022Z,97882.47
2023-03-31T05:45:12.644Z,97866.44
2023-03-31T05:47:39.494Z,97884.28
2023-03-31T05:50:09.118Z,97871.66
2023-03-31T05:52:36.422Z,97864.09
2023-03-31T05:55:04.727Z,97865.00
2023-03-31T05:57:31.903Z,97849.88
2023-03-31T05:59:58.850Z,97847.31
2023-03-31T06:02:25.972Z,97855.06
2023-03-31T06:04:52.802Z,97857.63
2023-03-31T06:07:19.562Z,97861.88
2023-03-31T06:09:46.812Z,97852.59
2023-03-31T06:12:13.930Z,97849.28
2023-03-31T06:14:40.691Z,97851.81
2023-03-31T06:17:07.728Z,97849.22
2023-03-31T06:19:34.978Z,97839.13
2023-03-31T06:22:01.911Z,97845.88
2023-03-31T06:24:28.699Z,97834.09
2023-03-31T06:26:55.628Z,97839.91
2023-03-31T06:29:22.439Z,97839.78
2023-03-31T06:31:49.303Z,97844.72
2023-03-31T06:34:17.823Z,97828.47
2023-03-31T06:36:45.626Z,97824.78
2023-03-31T06:39:12.387Z,97824.44
2023-03-31T06:41:39.100Z,97822.16
2023-03-31T06:44:06.034Z,97825.63
2023-03-31T06:46:32.992Z,97817.19
2023-03-31T06:48:59.790Z,97819.63
2023-03-31T06:51:26.597Z,97810.88
2023-03-31T06:53:53.373Z,97815.81
2023-03-31T06:56:20.359Z,97822.28
2023-03-31T06:58:47.158Z,97820.16
2023-03-31T07:01:14.003Z,97817.94
2023-03-31T07:03:41.107Z,97817.50
2023-03-31T07:06:08.166Z,97814.72
2023-03-31T07:08:34.859Z,97818.22
2023-03-31T07:11:02.196Z,97808.22
2023-03-31T07:13:29.590Z,97808.13
2023-03-31T07:15:56.751Z,97800.25
2023-03-31T07:18:34.248Z,97791.69
2023-03-31T07:21:01.667Z,97793.00
2023-03-31T07:23:28.432Z,97785.00
2023-03-31T07:25:55.328Z,97781.94
2023-03-31T07:28:22.096Z,97780.78
2023-03-31T07:30:48.880Z,97779.38
2023-03-31T07:33:15.779Z,97780.09
2023-03-31T07:35:42.717Z,97788.41
2023-03-31T07:38:11.677Z,97800.25
2023-03-31T07:40:40.054Z,97785.72
2023-03-31T07:43:07.258Z,97792.50
2023-03-31T07:45:34.964Z,97782.09
2023-03-31T07:48:02.125Z,97789.44
2023-03-31T07:50:28.961Z,97784.03
2023-03-31T07:52:55.758Z,97790.44
2023-03-31T07:55:23.690Z,97782.38
2023-03-31T07:57:51.268Z,97795.34
2023-03-31T08:00:19.052Z,97782.72
2023-03-31T08:02:46.328Z,97789.66
2023-03-31T08:05:17.474Z,97787.72
2023-03-31T08:07:47.897Z,97782.28
2023-03-31T08:10:23.054Z,97788.44
2023-03-31T08:12:49.917Z,97774.19
2023-03-31T08:15:17.470Z,97778.91
2023-03-31T08:17:45.337Z,97774.03
2023-03-31T08:20:12.777Z,97767.22
2023-03-31T08:22:40.762Z,97761.41
2023-03-31T08:25:09.030Z,97751.84
2023-03-31T08:27:38.508Z,97754.66
2023-03-31T08:30:09.111Z,97747.88
2023-03-31T08:32:36.413Z,97760.28
2023-03-31T08:35:04.216Z,97754.13
2023-03-31T08:37:31.842Z,97750.28
2023-03-31T08:39:58.840Z,97744.53
2023-03-31T08:42:49.292Z,97733.72
2023-03-31T08:45:30.975Z,97732.09
2023-03-31T08:48:25.844Z,97724.53
2023-03-31T08:51:10.989Z,97719.75
2023-03-31T08:54:03.472Z,97734.34
2023-03-31T08:56:39.025Z,97716.69
2023-03-31T08:59:16.541Z,97716.06
2023-03-31T09:02:11.899Z,97726.44
2023-03-31T09:05:46.128Z,97728.41
2023-03-31T09:08:41.857Z,97730.31
2023-03-31T09:11:20.056Z,97715.06
2023-03-31T09:14:26.582Z,97712.88
2023-03-31T09:17:15.659Z,97711.44
2023-03-31T09:19:54.146Z,97720.84
2023-03-31T09:22:27.691Z,97702.56
2023-03-31T09:25:32.829Z,97712.50
2023-03-31T09:28:03.475Z,97717.44
2023-03-31T09:30:34.576Z,97720.84
2023-03-31T09:33:33.190Z,97688.97
2023-03-31T09:36:13.931Z,97681.28
2023-03-31T09:38:43.729Z,97707.63
2023-03-31T09:41:13.989Z,97707.75
2023-03-31T09:43:42.310Z,97674.72
2023-03-31T09:46:48.017Z,97687.59
2023-03-31T09:49:20.994Z,97701.88
2023-03-31T09:52:00.709Z,97690.78
2023-03-31T09:54:37.017Z,97695.16
2023-03-31T09:57:28.603Z,97693.03
2023-03-31T10:00:08.206Z,97679.94
2023-03-31T10:02:40.592Z,97678.59
2023-03-31T10:05:26.455Z,97678.41
2023-03-31T10:08:21.272Z,97671.03
2023-03-31T10:10:58.449Z,97675.31
2023-03-31T10:13:38.528Z,97688.75
2023-03-31T10:16:12.717Z,97674.53
2023-03-31T10:18:43.328Z,97694.41
2023-03-31T10:21:35.105Z,97678.50
2023-03-31T10:24:09.176Z,97692.84
2023-03-31T10:26:36.525Z,97683.19
2023-03-31T10:29:13.614Z,97705.28
2023-03-31T10:31:40.692Z,97692.50
2023-03-31T10:34:16.927Z,97707.34
2023-03-31T10:36:50.377Z,97708.56
2023-03-31T10:39:19.000Z,97717.31
2023-03-31T10:41:54.849Z,97709.56
2023-03-31T10:44:33.004Z,97697.88
2023-03-31T10:47:21.933Z,97686.56
2023-03-31T10:49:57.918Z,97677.75
2023-03-31T10:52:27.346Z,97669.31
2023-03-31T10:55:03.646Z,97664.41
2023-03-31T10:57:49.574Z,97677.13
2023-03-31T11:00:46.284Z,97662.56
2023-03-31T11:03:50.812Z,97651.78
2023-03-31T11:06:37.772Z,97666.84
2023-03-31T11:09:26.020Z,97638.31
2023-03-31T11:12:11.204Z,97649.16
2023-03-31T11:15:03.083Z,97627.19
2023-03-31T11:17:56.859Z,97651.41
2023-03-31T11:20:34.884Z,97643.75
2023-03-31T11:23:42.883Z,97635.72
2023-03-31T11:26:18.397Z,97634.47
2023-03-31T11:29:04.608Z,97643.72
2023-03-31T11:31:40.494Z,97642.28
2023-03-31T11:34:36.248Z,97641.47
2023-03-31T11:37:31.871Z,97649.47
2023-03-31T11:40:54.606Z,97628.78
2023-03-31T11:43:42.176Z,97634.47
2023-03-31T11:46:13.422Z,97645.13
2023-03-31T11:49:03.726Z,97640.84
2023-03-31T11:51:48.591Z,97630.38
2023-03-31T11:54:37.586Z,97619.81
2023-03-31T11:57:20.677Z,97618.75
2023-03-31T12:00:06.340Z,97629.19
2023-03-31T12:02:57.920Z,97626.97
2023-03-31T12:05:28.158Z,97635.16
2023-03-31T12:08:07.804Z,97621.34
2023-03-31T12:10:38.870Z,97612.00
2023-03-31T12:13:39.724Z,97619.81
2023-03-31T12:16:20.521Z,97625.91
2023-03-31T12:19:15.094Z,97605.91
2023-03-31T12:21:55.243Z,97605.31
2023-03-31T12:24:22.001Z,97595.94
2023-03-31T12:27:18.508Z,97618.06
2023-03-31T12:29:51.196Z,97620.63
2023-03-31T12:32:24.401Z,97625.13
2023-03-31T12:35:03.727Z,97623.34
2023-03-31T12:38:11.028Z,97619.72
2023-03-31T12:41:08.356Z,97609.50
2023-03-31T12:43:52.525Z,97604.59
2023-03-31T12:46:28.112Z,97602.16
2023-03-31T12:49:41.468Z,97587.66
2023-03-31T12:52:42.112Z,97578.75
2023-03-31T12:55:32.181Z,97561.59
2023-03-31T12:58:27.592Z,97562.22
2023-03-31T13:01:17.616Z,97577.34
2023-03-31T13:03:54.143Z,97570.19
2023-03-31T13:06:30.337Z,97573.59
2023-03-31T13:09:12.134Z,97587.53
2023-03-31T13:11:44.698Z,97577.22
2023-03-31T13:14:47.192Z,97568.31
2023-03-31T13:17:27.335Z,97579.22
2023-03-31T13:19:56.226Z,97550.09
2023-03-31T13:22:35.466Z,97562.25
2023-03-31T13:25:29.859Z,97550.41
2023-03-31T13:28:17.511Z,97554.47
2023-03-31T13:31:06.748Z,97556.56
2023-03-31T13:33:49.118Z,97539.97
2023-03-31T13:36:37.268Z,97550.84
2023-03-31T13:39:55.585Z,97544.63
2023-03-31T13:42:53.466Z,97532.19
2023-03-31T13:45:55.442Z,97530.31
2023-03-31T13:48:42.207Z,97515.28
2023-03-31T13:51:28.802Z,97519.22
2023-03-31T13:54:44.692Z,97519.09
2023-03-31T13:57:54.756Z,97515.44
2023-03-31T14:00:34.328Z,97510.63
2023-03-31T14:03:57.803Z,97517.72
2023-03-31T14:06:55.252Z,97520.97
2023-03-31T14:09:43.911Z,97514.84
2023-03-31T14:12:32.264Z,97472.56
2023-03-31T14:14:59.724Z,97489.44
2023-03-31T14:17:37.009Z,97477.75
2023-03-31T14:20:37.579Z,97485.06
2023-03-31T14:23:15.913Z,97468.91
2023-03-31T14:26:11.647Z,97478.38
2023-03-31T14:29:12.668Z,97494.59
2023-03-31T14:32:05.682Z,97482.50
2023-03-31T14:35:02.339Z,97491.03
2023-03-31T14:37:29.471Z,97473.06
2023-03-31T14:39:58.182Z,97491.91
2023-03-31T14:42:33.679Z,97509.06
2023-03-31T14:45:15.713Z,97521.41
2023-03-31T14:47:42.508Z,97514.13
2023-03-31T14:50:18.889Z,97499.16
2023-03-31T14:52:52.219Z,97517.72
2023-03-31T14:55:28.600Z,97517.69
2023-03-31T14:58:03.140Z,97504.25
2023-03-31T15:00:33.698Z,97515.56
2023-03-31T15:03:04.013Z,97521.16
2023-03-31T15:05:38.388Z,97536.00
2023-03-31T15:08:15.730Z,97532.88
2023-03-31T15:10:58.685Z,97525.28
2023-03-31T15:13:37.259Z,97545.81
2023-03-31T15:16:43.667Z,97532.50
2023-03-31T15:19:27.330Z,97549.66
2023-03-31T15:22:05.966Z,97548.88
2023-03-31T15:24:33.136Z,97554.75
2023-03-31T15:27:18.321Z,97551.94
2023-03-31T15:29:53.773Z,97546.53
2023-03-31T15:32:32.351Z,97549.50
2023-03-31T15:37:47.532Z,97566.84
2023-03-31T15:40:40.931Z,97548.63
2023-03-31T15:43:26.719Z,97545.69
2023-03-31T15:45:56.966Z,97550.25
2023-03-31T15:48:26.098Z,97558.38
2023-03-31T15:50:53.139Z,97573.13
2023-03-31T15:53:43.539Z,97548.13
2023-03-31T15:56:44.624Z,97542.97
2023-03-31T15:59:34.317Z,97556.38
2023-03-31T16:02:05.796Z,97566.91
2023-03-31T16:04:33.593Z,97552.69
2023-03-31T16:07:09.430Z,97563.09
2023-03-31T16:09:47.601Z,97553.19
2023-03-31T16:13:00.230Z,97557.97
2023-03-31T16:15:41.991Z,97547.34
2023-03-31T16:18:23.356Z,97546.06
2023-03-31T16:21:00.760Z,97555.69
2023-03-31T16:23:34.538Z,97546.56
2023-03-31T16:26:02.234Z,97548.28
2023-03-31T16:28:34.057Z,97543.25
2023-03-31T16:31:05.068Z,97546.97
2023-03-31T16:33:54.564Z,97544.59
2023-03-31T16:36:21.395Z,97543.00
2023-03-31T16:38:51.228Z,97538.75
2023-03-31T16:41:18.079Z,97535.44
2023-03-31T16:43:46.102Z,97521.00
2023-03-31T16:46:13.018Z,97522.78
2023-03-31T16:48:39.828Z,97535.53
2023-03-31T16:51:06.647Z,97526.41
2023-03-31T16:53:36.203Z,97530.63
2023-03-31T16:56:08.209Z,97516.22
2023-03-31T16:58:37.589Z,97520.56
2023-03-31T17:01:07.313Z,97516.53
2023-03-31T17:03:37.037Z,97525.25
2023-03-31T17:06:11.578Z,97529.06
2023-03-31T17:08:39.532Z,97529.19
2023-03-31T17:11:13.956Z,97543.91
2023-03-31T17:13:43.216Z,97540.16
2023-03-31T17:16:17.366Z,97537.09
2023-03-31T17:18:49.165Z,97525.75
2023-03-31T17:21:19.053Z,97550.75
2023-03-31T17:23:47.413Z,97544.41
2023-03-31T17:26:14.627Z,97536.41
2023-03-31T17:28:42.827Z,97541.84
2023-03-31T17:31:21.498Z,97536.28
2023-03-31T17:33:48.456Z,97538.31
2023-03-31T17:36:16.519Z,97531.81
2023-03-31T17:38:43.770Z,97530.34
2023-03-31T17:41:13.025Z,97536.47
2023-03-31T17:43:40.347Z,97534.97
2023-03-31T17:46:13.564Z,97543.59
2023-03-31T17:48:41.930Z,97542.09
2023-03-31T17:51:14.706Z,97550.69
2023-03-31T17:53:44.842Z,97555.06
2023-03-31T17:56:13.152Z,97568.66
2023-03-31T17:58:40.362Z,97561.28
2023-03-31T18:01:10.053Z,97578.41
2023-03-31T18:03:37.276Z,97581.25
2023-03-31T18:06:06.654Z,97584.16
2023-03-31T18:08:34.885Z,97577.03
2023-03-31T18:11:02.870Z,97574.03
2023-03-31T18:13:30.238Z,97576.97
2023-03-31T18:15:57.946Z,97564.69
2023-03-31T18:18:28.049Z,97566.63
2023-03-31T18:20:55.920Z,97564.34
2023-03-31T18:23:23.778Z,97560.31
2023-03-31T18:25:50.557Z,97574.88
2023-03-31T18:28:18.092Z,97570.91
2023-03-31T18:30:46.341Z,97564.31
2023-03-31T18:33:14.216Z,97565.28
2023-03-31T18:35:41.540Z,97564.50
2023-03-31T18:38:09.703Z,97565.47
2023-03-31T18:40:36.823Z,97573.09
2023-03-31T18:43:04.144Z,97568.88
2023-03-31T18:45:30.983Z,97561.41
2023-03-31T18:47:58.210Z,97569.13
2023-03-31T18:50:25.864Z,97569.13
2023-03-31T18:52:54.201Z,97582.72
2023-03-31T18:55:21.883Z,97582.72
2023-03-31T18:57:48.843Z,97569.31
2023-03-31T19:00:16.194Z,97574.38
2023-03-31T19:02:43.277Z,97572.81
2023-03-31T19:05:10.137Z,97572.88
2023-03-31T19:07:36.905Z,97588.19
2023-03-31T19:10:04.341Z,97572.25
2023-03-31T19:12:31.047Z,97570.59
2023-03-31T19:14:58.176Z,97581.78
2023-03-31T19:17:25.102Z,97571.69
2023-03-31T19:19:51.854Z,97583.59
2023-03-31T19:22:18.642Z,97567.56
2023-03-31T19:24:45.417Z,97571.84
2023-03-31T19:27:12.991Z,97584.59
2023-03-31T19:29:39.709Z,97581.31
2023-03-31T19:32:06.906Z,97587.19
2023-03-31T19:34:34.143Z,97590.69
2023-03-31T19:37:02.183Z,97599.16
2023-03-31T19:39:29.496Z,97586.56
2023-03-31T19:41:56.203Z,97587.50
2023-03-31T19:44:23.190Z,97579.91
2023-03-31T19:46:50.034Z,97581.78
2023-03-31T19:49:17.781Z,97586.91
2023-03-31T19:51:46.100Z,97586.31
2023-03-31T19:54:12.989Z,97576.25
2023-03-31T19:56:39.794Z,97584.75
2023-03-31T19:59:06.962Z,97576.44
2023-03-31T20:01:33.846Z,97582.47
2023-03-31T20:04:00.799Z,97571.53
2023-03-31T20:06:30.654Z,97568.19
2023-03-31T20:09:00.765Z,97582.59
2023-03-31T20:11:30.969Z,97579.31
2023-03-31T20:13:58.899Z,97570.03
2023-03-31T20:16:29.652Z,97566.72
2023-03-31T20:19:06.092Z,97581.22
2023-03-31T20:21:37.536Z,97579.56
2023-03-31T20:24:05.522Z,97577.16
2023-03-31T20:26:34.539Z,97572.16
2023-03-31T20:29:03.497Z,97579.75
2023-03-31T20:31:39.845Z,97594.09
2023-03-31T20:34:12.687Z,97572.19
2023-03-31T20:36:42.176Z,97573.09
2023-03-31T20:39:09.143Z,97575.56
2023-03-31T20:41:40.113Z,97579.88
2023-03-31T20:44:13.471Z,97580.75
2023-03-31T20:46:43.342Z,97566.47
2023-03-31T20:49:10.272Z,97569.94
2023-03-31T20:51:37.718Z,97564.84
2023-03-31T20:54:06.086Z,97578.34
2023-03-31T20:56:38.108Z,97569.00
2023-03-31T20:59:08.720Z,97571.56
2023-03-31T21:01:37.282Z,97564.00
2023-03-31T21:04:07.386Z,97566.53
2023-03-31T21:06:41.483Z,97576.63
2023-03-31T21:09:09.499Z,97563.13
2023-03-31T21:11:36.388Z,97570.75
2023-03-31T21:14:03.455Z,97585.09
2023-03-31T21:16:30.248Z,97580.88
2023-03-31T21:18:59.223Z,97566.47
2023-03-31T21:21:27.695Z,97570.75
2023-03-31T21:23:54.705Z,97573.34
2023-03-31T21:26:22.101Z,97585.97
2023-03-31T21:28:54.385Z,97584.25
2023-03-31T21:31:24.083Z,97572.47
2023-03-31T21:33:52.827Z,97575.75
2023-03-31T21:36:22.769Z,97575.75
2023-03-31T21:38:52.788Z,97569.94
2023-03-31T21:41:27.998Z,97568.28
2023-03-31T21:43:55.807Z,97564.22
2023-03-31T21:46:28.511Z,97574.44
2023-03-31T21:48:56.448Z,97561.78
2023-03-31T21:51:24.556Z,97566.94
2023-03-31T21:53:56.023Z,97570.41
2023-03-31T21:56:32.008Z,97564.59
2023-03-31T21:59:01.366Z,97566.34
2023-03-31T22:01:28.236Z,97560.47
2023-03-31T22:03:55.021Z,97563.97
2023-03-31T22:06:22.432Z,97564.84
2023-03-31T22:08:49.206Z,97564.06
2023-03-31T22:11:16.174Z,97572.63
2023-03-31T22:13:42.973Z,97563.38
2023-03-31T22:16:20.146Z,97570.28
2023-03-31T22:18:48.120Z,97577.91
2023-03-31T22:21:19.279Z,97567.13
2023-03-31T22:23:46.256Z,97564.66
2023-03-31T22:26:13.798Z,97574.03
2023-03-31T22:28:40.534Z,97575.84
2023-03-31T22:31:07.343Z,97564.81
2023-03-31T22:33:34.157Z,97572.50
2023-03-31T22:36:00.960Z,97564.06
2023-03-31T22:38:27.787Z,97558.16
2023-03-31T22:40:54.520Z,97567.56
2023-03-31T22:43:22.060Z,97567.63
2023-03-31T22:45:48.882Z,97568.50
2023-03-31T22:48:15.622Z,97560.88
2023-03-31T22:50:45.649Z,97560.97
2023-03-31T22:53:13.080Z,97560.13
2023-03-31T22:55:53.815Z,97559.38
2023-03-31T22:58:22.144Z,97553.53
2023-03-31T23:00:57.282Z,97553.59
2023-03-31T23:03:25.483Z,97569.69
2023-03-31T23:05:52.516Z,97560.34
2023-03-31T23:08:19.513Z,97573.81
2023-03-31T23:10:57.757Z,97564.59
2023-03-31T23:13:26.658Z,97566.34
2023-03-31T23:15:54.039Z,97574.81
2023-03-31T23:18:21.991Z,97565.50
2023-03-31T23:20:49.224Z,97573.00
2023-03-31T23:23:16.374Z,97569.56
2023-03-31T23:25:43.108Z,97566.13
2023-03-31T23:28:09.821Z,97571.28
2023-03-31T23:30:36.519Z,97569.50
2023-03-31T23:33:03.311Z,97562.78
2023-03-31T23:35:30.478Z,97552.63
2023-03-31T23:37:57.428Z,97552.63
2023-03-31T23:40:24.281Z,97559.38
2023-03-31T23:42:51.068Z,97556.84
2023-03-31T23:45:18.501Z,97553.44
2023-03-31T23:47:45.342Z,97556.06
2023-03-31T23:50:12.126Z,97559.53
2023-03-31T23:52:38.924Z,97554.47
2023-03-31T23:55:06.555Z,97557.94
2023-03-31T23:57:33.518Z,97547.00
